sensor_id;sensor_type;location;lat;lon;timestamp;P1;durP1;ratioP1;P2;durP2;ratioP2
75038;SDS011;63609;49.992;14.512;2023-06-24T00:03:31;4.10;;;2.15;;
75038;SDS011;63609;49.992;14.512;2023-06-24T00:05:58;3.92;;;2.33;;
75038;SDS011;63609;49.992;14.512;2023-06-24T00:08:29;4.75;;;2.60;;
75038;SDS011;63609;49.992;14.512;2023-06-24T00:11:01;3.65;;;2.30;;
75038;SDS011;63609;49.992;14.512;2023-06-24T00:13:29;3.13;;;2.00;;
75038;SDS011;63609;49.992;14.512;2023-06-24T00:15:56;3.90;;;2.22;;
75038;SDS011;63609;49.992;14.512;2023-06-24T00:18:23;3.55;;;2.10;;
75038;SDS011;63609;49.992;14.512;2023-06-24T00:20:51;3.65;;;2.17;;
75038;SDS011;63609;49.992;14.512;2023-06-24T00:23:19;4.38;;;2.55;;
75038;SDS011;63609;49.992;14.512;2023-06-24T00:25:51;4.38;;;2.30;;
75038;SDS011;63609;49.992;14.512;2023-06-24T00:28:18;3.58;;;1.95;;
75038;SDS011;63609;49.992;14.512;2023-06-24T00:30:46;4.07;;;2.50;;
75038;SDS011;63609;49.992;14.512;2023-06-24T00:33:14;4.60;;;2.15;;
75038;SDS011;63609;49.992;14.512;2023-06-24T00:35:41;4.43;;;2.83;;
75038;SDS011;63609;49.992;14.512;2023-06-24T00:38:09;5.30;;;2.83;;
75038;SDS011;63609;49.992;14.512;2023-06-24T00:40:36;4.93;;;3.08;;
75038;SDS011;63609;49.992;14.512;2023-06-24T00:43:04;5.72;;;3.15;;
75038;SDS011;63609;49.992;14.512;2023-06-24T00:45:33;6.50;;;3.28;;
75038;SDS011;63609;49.992;14.512;2023-06-24T00:48:01;5.72;;;3.33;;
75038;SDS011;63609;49.992;14.512;2023-06-24T00:50:31;5.68;;;3.33;;
75038;SDS011;63609;49.992;14.512;2023-06-24T00:52:58;5.40;;;2.97;;
75038;SDS011;63609;49.992;14.512;2023-06-24T00:55:25;5.63;;;3.20;;
75038;SDS011;63609;49.992;14.512;2023-06-24T00:57:55;6.07;;;3.58;;
75038;SDS011;63609;49.992;14.512;2023-06-24T01:00:23;5.53;;;3.33;;
75038;SDS011;63609;49.992;14.512;2023-06-24T01:05:28;7.32;;;3.30;;
75038;SDS011;63609;49.992;14.512;2023-06-24T01:07:56;5.20;;;3.30;;
75038;SDS011;63609;49.992;14.512;2023-06-24T01:10:23;6.60;;;3.65;;
75038;SDS011;63609;49.992;14.512;2023-06-24T01:12:50;5.97;;;3.47;;
75038;SDS011;63609;49.992;14.512;2023-06-24T01:15:18;5.03;;;3.03;;
75038;SDS011;63609;49.992;14.512;2023-06-24T01:18:00;6.30;;;3.58;;
75038;SDS011;63609;49.992;14.512;2023-06-24T01:20:41;5.90;;;3.85;;
75038;SDS011;63609;49.992;14.512;2023-06-24T01:28:30;6.47;;;3.65;;
75038;SDS011;63609;49.992;14.512;2023-06-24T01:34:06;6.15;;;3.50;;
75038;SDS011;63609;49.992;14.512;2023-06-24T01:36:43;5.07;;;2.97;;
75038;SDS011;63609;49.992;14.512;2023-06-24T01:39:21;5.78;;;3.00;;
75038;SDS011;63609;49.992;14.512;2023-06-24T01:41:58;6.63;;;3.20;;
75038;SDS011;63609;49.992;14.512;2023-06-24T01:44:28;5.32;;;3.03;;
75038;SDS011;63609;49.992;14.512;2023-06-24T01:46:57;6.20;;;3.22;;
75038;SDS011;63609;49.992;14.512;2023-06-24T01:49:28;6.57;;;3.60;;
75038;SDS011;63609;49.992;14.512;2023-06-24T01:51:57;5.15;;;3.20;;
75038;SDS011;63609;49.992;14.512;2023-06-24T01:54:28;6.43;;;3.22;;
75038;SDS011;63609;49.992;14.512;2023-06-24T01:57:09;5.35;;;3.40;;
75038;SDS011;63609;49.992;14.512;2023-06-24T01:59:39;6.85;;;3.80;;
75038;SDS011;63609;49.992;14.512;2023-06-24T02:02:09;7.57;;;3.20;;
75038;SDS011;63609;49.992;14.512;2023-06-24T02:04:38;6.47;;;3.47;;
75038;SDS011;63609;49.992;14.512;2023-06-24T02:07:06;7.10;;;3.80;;
75038;SDS011;63609;49.992;14.512;2023-06-24T02:09:36;6.55;;;3.50;;
75038;SDS011;63609;49.992;14.512;2023-06-24T02:12:05;7.07;;;3.50;;
75038;SDS011;63609;49.992;14.512;2023-06-24T02:14:35;6.90;;;3.65;;
75038;SDS011;63609;49.992;14.512;2023-06-24T02:17:04;5.40;;;3.38;;
75038;SDS011;63609;49.992;14.512;2023-06-24T02:19:33;5.43;;;3.35;;
75038;SDS011;63609;49.992;14.512;2023-06-24T02:22:01;5.43;;;3.50;;
75038;SDS011;63609;49.992;14.512;2023-06-24T02:24:31;6.22;;;3.53;;
75038;SDS011;63609;49.992;14.512;2023-06-24T02:27:00;5.68;;;3.03;;
75038;SDS011;63609;49.992;14.512;2023-06-24T02:29:28;7.72;;;3.90;;
75038;SDS011;63609;49.992;14.512;2023-06-24T02:31:56;5.65;;;3.55;;
75038;SDS011;63609;49.992;14.512;2023-06-24T02:34:27;5.38;;;3.70;;
75038;SDS011;63609;49.992;14.512;2023-06-24T02:36:55;8.00;;;4.65;;
75038;SDS011;63609;49.992;14.512;2023-06-24T02:39:21;6.55;;;3.40;;
75038;SDS011;63609;49.992;14.512;2023-06-24T02:41:49;7.13;;;4.03;;
75038;SDS011;63609;49.992;14.512;2023-06-24T02:44:17;7.85;;;3.72;;
75038;SDS011;63609;49.992;14.512;2023-06-24T02:46:45;7.50;;;3.70;;
75038;SDS011;63609;49.992;14.512;2023-06-24T02:49:15;6.20;;;3.70;;
75038;SDS011;63609;49.992;14.512;2023-06-24T02:51:44;6.10;;;3.70;;
75038;SDS011;63609;49.992;14.512;2023-06-24T02:54:12;8.30;;;4.20;;
75038;SDS011;63609;49.992;14.512;2023-06-24T02:57:10;6.32;;;3.80;;
75038;SDS011;63609;49.992;14.512;2023-06-24T03:00:02;6.20;;;3.78;;
75038;SDS011;63609;49.992;14.512;2023-06-24T03:02:46;6.68;;;3.95;;
75038;SDS011;63609;49.992;14.512;2023-06-24T03:05:16;6.18;;;3.78;;
75038;SDS011;63609;49.992;14.512;2023-06-24T03:07:45;7.40;;;3.83;;
75038;SDS011;63609;49.992;14.512;2023-06-24T03:10:13;7.93;;;3.63;;
75038;SDS011;63609;49.992;14.512;2023-06-24T03:12:41;5.82;;;3.78;;
75038;SDS011;63609;49.992;14.512;2023-06-24T03:15:09;8.15;;;4.00;;
75038;SDS011;63609;49.992;14.512;2023-06-24T03:17:36;6.25;;;3.42;;
75038;SDS011;63609;49.992;14.512;2023-06-24T03:20:04;6.75;;;3.30;;
75038;SDS011;63609;49.992;14.512;2023-06-24T03:22:32;5.72;;;3.58;;
75038;SDS011;63609;49.992;14.512;2023-06-24T03:25:00;6.00;;;3.75;;
75038;SDS011;63609;49.992;14.512;2023-06-24T03:27:28;5.72;;;3.50;;
75038;SDS011;63609;49.992;14.512;2023-06-24T03:29:57;6.88;;;3.50;;
75038;SDS011;63609;49.992;14.512;2023-06-24T03:32:24;5.40;;;3.40;;
75038;SDS011;63609;49.992;14.512;2023-06-24T03:34:52;6.00;;;3.13;;
75038;SDS011;63609;49.992;14.512;2023-06-24T03:37:18;4.50;;;2.95;;
75038;SDS011;63609;49.992;14.512;2023-06-24T03:39:46;6.60;;;3.28;;
75038;SDS011;63609;49.992;14.512;2023-06-24T03:42:13;6.05;;;2.97;;
75038;SDS011;63609;49.992;14.512;2023-06-24T03:44:39;6.07;;;3.08;;
75038;SDS011;63609;49.992;14.512;2023-06-24T03:47:06;5.60;;;3.28;;
75038;SDS011;63609;49.992;14.512;2023-06-24T03:49:34;7.63;;;4.63;;
75038;SDS011;63609;49.992;14.512;2023-06-24T03:52:01;5.28;;;3.28;;
75038;SDS011;63609;49.992;14.512;2023-06-24T03:54:28;7.70;;;3.50;;
75038;SDS011;63609;49.992;14.512;2023-06-24T03:56:55;4.88;;;3.05;;
75038;SDS011;63609;49.992;14.512;2023-06-24T03:59:22;5.50;;;3.20;;
75038;SDS011;63609;49.992;14.512;2023-06-24T04:01:52;6.15;;;3.30;;
75038;SDS011;63609;49.992;14.512;2023-06-24T04:04:19;6.88;;;3.25;;
75038;SDS011;63609;49.992;14.512;2023-06-24T04:06:46;7.07;;;3.38;;
75038;SDS011;63609;49.992;14.512;2023-06-24T04:09:14;5.95;;;3.50;;
75038;SDS011;63609;49.992;14.512;2023-06-24T04:11:41;6.22;;;3.40;;
75038;SDS011;63609;49.992;14.512;2023-06-24T04:14:08;6.00;;;3.10;;
75038;SDS011;63609;49.992;14.512;2023-06-24T04:16:36;5.97;;;2.78;;
75038;SDS011;63609;49.992;14.512;2023-06-24T04:19:03;5.75;;;3.58;;
75038;SDS011;63609;49.992;14.512;2023-06-24T04:21:33;6.00;;;3.47;;
75038;SDS011;63609;49.992;14.512;2023-06-24T04:24:00;6.30;;;3.63;;
75038;SDS011;63609;49.992;14.512;2023-06-24T04:26:27;7.00;;;3.72;;
75038;SDS011;63609;49.992;14.512;2023-06-24T04:28:54;6.10;;;3.92;;
75038;SDS011;63609;49.992;14.512;2023-06-24T04:31:21;7.53;;;3.97;;
75038;SDS011;63609;49.992;14.512;2023-06-24T04:33:48;9.55;;;3.78;;
75038;SDS011;63609;49.992;14.512;2023-06-24T04:36:15;6.53;;;3.92;;
75038;SDS011;63609;49.992;14.512;2023-06-24T04:38:43;7.10;;;3.83;;
75038;SDS011;63609;49.992;14.512;2023-06-24T04:41:09;7.28;;;4.13;;
75038;SDS011;63609;49.992;14.512;2023-06-24T04:43:36;7.35;;;4.20;;
75038;SDS011;63609;49.992;14.512;2023-06-24T04:46:03;9.18;;;4.50;;
75038;SDS011;63609;49.992;14.512;2023-06-24T04:48:30;11.35;;;4.55;;
75038;SDS011;63609;49.992;14.512;2023-06-24T04:50:58;8.10;;;4.53;;
75038;SDS011;63609;49.992;14.512;2023-06-24T04:53:24;9.20;;;4.78;;
75038;SDS011;63609;49.992;14.512;2023-06-24T04:55:51;9.27;;;5.20;;
75038;SDS011;63609;49.992;14.512;2023-06-24T04:58:18;8.75;;;4.38;;
75038;SDS011;63609;49.992;14.512;2023-06-24T05:00:45;9.77;;;4.75;;
75038;SDS011;63609;49.992;14.512;2023-06-24T05:03:12;8.93;;;4.50;;
75038;SDS011;63609;49.992;14.512;2023-06-24T05:05:39;10.80;;;4.68;;
75038;SDS011;63609;49.992;14.512;2023-06-24T05:08:06;8.30;;;4.25;;
75038;SDS011;63609;49.992;14.512;2023-06-24T05:10:34;11.32;;;5.03;;
75038;SDS011;63609;49.992;14.512;2023-06-24T05:13:01;11.02;;;5.05;;
75038;SDS011;63609;49.992;14.512;2023-06-24T05:15:28;10.23;;;5.47;;
75038;SDS011;63609;49.992;14.512;2023-06-24T05:17:55;10.88;;;5.57;;
75038;SDS011;63609;49.992;14.512;2023-06-24T05:20:23;10.68;;;5.40;;
75038;SDS011;63609;49.992;14.512;2023-06-24T05:22:50;10.35;;;5.93;;
75038;SDS011;63609;49.992;14.512;2023-06-24T05:25:20;11.68;;;6.15;;
75038;SDS011;63609;49.992;14.512;2023-06-24T05:27:47;8.98;;;5.47;;
75038;SDS011;63609;49.992;14.512;2023-06-24T05:30:17;11.23;;;6.07;;
75038;SDS011;63609;49.992;14.512;2023-06-24T05:32:44;9.35;;;5.97;;
75038;SDS011;63609;49.992;14.512;2023-06-24T05:35:11;8.98;;;5.63;;
75038;SDS011;63609;49.992;14.512;2023-06-24T05:37:39;11.85;;;6.28;;
75038;SDS011;63609;49.992;14.512;2023-06-24T05:40:06;11.50;;;6.32;;
75038;SDS011;63609;49.992;14.512;2023-06-24T05:42:34;13.05;;;6.82;;
75038;SDS011;63609;49.992;14.512;2023-06-24T05:45:01;12.02;;;5.32;;
75038;SDS011;63609;49.992;14.512;2023-06-24T05:47:30;11.02;;;6.05;;
75038;SDS011;63609;49.992;14.512;2023-06-24T05:49:57;9.30;;;5.70;;
75038;SDS011;63609;49.992;14.512;2023-06-24T05:52:24;14.85;;;6.68;;
75038;SDS011;63609;49.992;14.512;2023-06-24T05:54:51;10.25;;;6.80;;
75038;SDS011;63609;49.992;14.512;2023-06-24T05:57:18;11.05;;;6.22;;
75038;SDS011;63609;49.992;14.512;2023-06-24T05:59:45;17.75;;;6.75;;
75038;SDS011;63609;49.992;14.512;2023-06-24T06:02:12;10.85;;;6.00;;
75038;SDS011;63609;49.992;14.512;2023-06-24T06:04:39;10.68;;;6.40;;
75038;SDS011;63609;49.992;14.512;2023-06-24T06:07:06;10.75;;;6.10;;
75038;SDS011;63609;49.992;14.512;2023-06-24T06:09:33;12.82;;;6.82;;
75038;SDS011;63609;49.992;14.512;2023-06-24T06:12:00;10.88;;;6.90;;
75038;SDS011;63609;49.992;14.512;2023-06-24T06:14:27;10.43;;;5.80;;
75038;SDS011;63609;49.992;14.512;2023-06-24T06:16:54;12.68;;;6.60;;
75038;SDS011;63609;49.992;14.512;2023-06-24T06:19:22;9.85;;;6.20;;
75038;SDS011;63609;49.992;14.512;2023-06-24T06:21:50;13.70;;;6.53;;
75038;SDS011;63609;49.992;14.512;2023-06-24T06:24:18;13.80;;;6.68;;
75038;SDS011;63609;49.992;14.512;2023-06-24T06:26:45;14.45;;;6.80;;
75038;SDS011;63609;49.992;14.512;2023-06-24T06:29:12;12.57;;;7.15;;
75038;SDS011;63609;49.992;14.512;2023-06-24T06:31:40;12.32;;;7.18;;
75038;SDS011;63609;49.992;14.512;2023-06-24T06:34:07;12.90;;;7.53;;
75038;SDS011;63609;49.992;14.512;2023-06-24T06:36:35;10.63;;;6.93;;
75038;SDS011;63609;49.992;14.512;2023-06-24T06:39:02;13.60;;;7.68;;
75038;SDS011;63609;49.992;14.512;2023-06-24T06:41:29;13.63;;;7.32;;
75038;SDS011;63609;49.992;14.512;2023-06-24T06:44:03;15.75;;;8.27;;
75038;SDS011;63609;49.992;14.512;2023-06-24T06:46:30;12.93;;;8.00;;
75038;SDS011;63609;49.992;14.512;2023-06-24T06:48:57;14.30;;;7.80;;
75038;SDS011;63609;49.992;14.512;2023-06-24T06:51:25;13.90;;;8.40;;
75038;SDS011;63609;49.992;14.512;2023-06-24T06:53:52;15.43;;;7.18;;
75038;SDS011;63609;49.992;14.512;2023-06-24T06:56:22;15.48;;;9.13;;
75038;SDS011;63609;49.992;14.512;2023-06-24T06:58:54;15.98;;;9.07;;
75038;SDS011;63609;49.992;14.512;2023-06-24T07:01:21;18.42;;;9.25;;
75038;SDS011;63609;49.992;14.512;2023-06-24T07:03:49;15.30;;;8.75;;
75038;SDS011;63609;49.992;14.512;2023-06-24T07:06:19;19.20;;;9.65;;
75038;SDS011;63609;49.992;14.512;2023-06-24T07:08:47;18.95;;;9.48;;
75038;SDS011;63609;49.992;14.512;2023-06-24T07:11:14;20.52;;;11.50;;
75038;SDS011;63609;49.992;14.512;2023-06-24T07:13:41;17.40;;;10.57;;
75038;SDS011;63609;49.992;14.512;2023-06-24T07:16:08;18.08;;;10.45;;
75038;SDS011;63609;49.992;14.512;2023-06-24T07:18:34;18.33;;;11.00;;
75038;SDS011;63609;49.992;14.512;2023-06-24T07:21:01;17.67;;;12.00;;
75038;SDS011;63609;49.992;14.512;2023-06-24T07:23:28;19.63;;;11.60;;
75038;SDS011;63609;49.992;14.512;2023-06-24T07:25:55;17.70;;;11.02;;
75038;SDS011;63609;49.992;14.512;2023-06-24T07:28:23;22.00;;;11.98;;
75038;SDS011;63609;49.992;14.512;2023-06-24T07:30:50;22.50;;;12.70;;
75038;SDS011;63609;49.992;14.512;2023-06-24T07:33:17;21.17;;;12.30;;
75038;SDS011;63609;49.992;14.512;2023-06-24T07:35:44;20.25;;;12.77;;
75038;SDS011;63609;49.992;14.512;2023-06-24T07:38:11;20.73;;;12.68;;
75038;SDS011;63609;49.992;14.512;2023-06-24T07:40:38;21.73;;;13.45;;
75038;SDS011;63609;49.992;14.512;2023-06-24T07:43:05;20.08;;;12.25;;
75038;SDS011;63609;49.992;14.512;2023-06-24T07:45:32;18.10;;;11.30;;
75038;SDS011;63609;49.992;14.512;2023-06-24T07:47:59;18.70;;;12.20;;
75038;SDS011;63609;49.992;14.512;2023-06-24T07:50:26;15.38;;;9.73;;
75038;SDS011;63609;49.992;14.512;2023-06-24T07:52:53;23.83;;;13.60;;
75038;SDS011;63609;49.992;14.512;2023-06-24T07:55:20;19.75;;;12.82;;
75038;SDS011;63609;49.992;14.512;2023-06-24T07:57:47;18.15;;;10.38;;
75038;SDS011;63609;49.992;14.512;2023-06-24T08:00:14;17.92;;;11.40;;
75038;SDS011;63609;49.992;14.512;2023-06-24T08:02:42;19.05;;;12.23;;
75038;SDS011;63609;49.992;14.512;2023-06-24T08:05:09;19.85;;;12.50;;
75038;SDS011;63609;49.992;14.512;2023-06-24T08:07:37;17.70;;;11.57;;
75038;SDS011;63609;49.992;14.512;2023-06-24T08:10:05;16.95;;;11.52;;
75038;SDS011;63609;49.992;14.512;2023-06-24T08:12:32;16.52;;;11.18;;
75038;SDS011;63609;49.992;14.512;2023-06-24T08:14:59;16.92;;;10.93;;
75038;SDS011;63609;49.992;14.512;2023-06-24T08:17:26;17.00;;;11.65;;
75038;SDS011;63609;49.992;14.512;2023-06-24T08:19:53;14.77;;;10.88;;
75038;SDS011;63609;49.992;14.512;2023-06-24T08:22:20;15.57;;;10.82;;
75038;SDS011;63609;49.992;14.512;2023-06-24T08:24:47;16.83;;;11.35;;
75038;SDS011;63609;49.992;14.512;2023-06-24T08:27:14;16.52;;;12.48;;
75038;SDS011;63609;49.992;14.512;2023-06-24T08:29:40;17.17;;;10.52;;
75038;SDS011;63609;49.992;14.512;2023-06-24T08:32:07;16.30;;;10.35;;
75038;SDS011;63609;49.992;14.512;2023-06-24T08:34:34;14.57;;;10.10;;
75038;SDS011;63609;49.992;14.512;2023-06-24T08:37:01;15.07;;;10.38;;
75038;SDS011;63609;49.992;14.512;2023-06-24T08:39:28;13.48;;;9.70;;
75038;SDS011;63609;49.992;14.512;2023-06-24T08:41:55;13.80;;;9.68;;
75038;SDS011;63609;49.992;14.512;2023-06-24T08:44:22;14.90;;;9.68;;
75038;SDS011;63609;49.992;14.512;2023-06-24T08:46:49;12.07;;;8.63;;
75038;SDS011;63609;49.992;14.512;2023-06-24T08:49:22;13.57;;;8.98;;
75038;SDS011;63609;49.992;14.512;2023-06-24T08:54:35;12.30;;;8.45;;
75038;SDS011;63609;49.992;14.512;2023-06-24T08:57:03;15.63;;;8.90;;
75038;SDS011;63609;49.992;14.512;2023-06-24T09:02:09;13.38;;;8.50;;
75038;SDS011;63609;49.992;14.512;2023-06-24T09:04:38;14.90;;;8.93;;
75038;SDS011;63609;49.992;14.512;2023-06-24T09:07:05;10.95;;;7.97;;
75038;SDS011;63609;49.992;14.512;2023-06-24T09:09:35;12.35;;;7.90;;
75038;SDS011;63609;49.992;14.512;2023-06-24T09:12:10;12.98;;;7.78;;
75038;SDS011;63609;49.992;14.512;2023-06-24T09:14:41;9.80;;;7.78;;
75038;SDS011;63609;49.992;14.512;2023-06-24T09:17:09;12.27;;;8.93;;
75038;SDS011;63609;49.992;14.512;2023-06-24T09:19:36;10.93;;;8.10;;
75038;SDS011;63609;49.992;14.512;2023-06-24T09:22:03;12.60;;;8.75;;
75038;SDS011;63609;49.992;14.512;2023-06-24T09:24:35;10.30;;;8.05;;
75038;SDS011;63609;49.992;14.512;2023-06-24T09:27:03;10.25;;;7.43;;
75038;SDS011;63609;49.992;14.512;2023-06-24T09:29:31;10.80;;;7.25;;
75038;SDS011;63609;49.992;14.512;2023-06-24T09:31:59;10.63;;;7.10;;
75038;SDS011;63609;49.992;14.512;2023-06-24T09:34:30;10.02;;;6.85;;
75038;SDS011;63609;49.992;14.512;2023-06-24T09:36:58;11.13;;;7.65;;
75038;SDS011;63609;49.992;14.512;2023-06-24T09:39:26;8.82;;;6.68;;
75038;SDS011;63609;49.992;14.512;2023-06-24T09:41:57;13.35;;;7.30;;
75038;SDS011;63609;49.992;14.512;2023-06-24T09:44:33;11.30;;;7.82;;
75038;SDS011;63609;49.992;14.512;2023-06-24T09:47:02;9.50;;;7.22;;
75038;SDS011;63609;49.992;14.512;2023-06-24T09:49:30;11.60;;;7.80;;
75038;SDS011;63609;49.992;14.512;2023-06-24T09:51:57;10.05;;;7.55;;
75038;SDS011;63609;49.992;14.512;2023-06-24T09:54:26;8.98;;;7.30;;
75038;SDS011;63609;49.992;14.512;2023-06-24T09:57:01;9.77;;;7.43;;
75038;SDS011;63609;49.992;14.512;2023-06-24T09:59:30;9.43;;;6.55;;
75038;SDS011;63609;49.992;14.512;2023-06-24T10:02:00;9.48;;;7.00;;
75038;SDS011;63609;49.992;14.512;2023-06-24T10:04:30;13.18;;;7.57;;
75038;SDS011;63609;49.992;14.512;2023-06-24T10:06:58;11.27;;;8.80;;
75038;SDS011;63609;49.992;14.512;2023-06-24T10:09:25;11.00;;;7.07;;
75038;SDS011;63609;49.992;14.512;2023-06-24T10:11:52;9.55;;;7.38;;
75038;SDS011;63609;49.992;14.512;2023-06-24T10:14:19;9.52;;;7.18;;
75038;SDS011;63609;49.992;14.512;2023-06-24T10:16:47;9.15;;;7.22;;
75038;SDS011;63609;49.992;14.512;2023-06-24T10:19:20;9.18;;;7.25;;
75038;SDS011;63609;49.992;14.512;2023-06-24T10:21:52;9.85;;;7.10;;
75038;SDS011;63609;49.992;14.512;2023-06-24T10:24:36;8.63;;;6.75;;
75038;SDS011;63609;49.992;14.512;2023-06-24T10:27:08;9.43;;;7.05;;
75038;SDS011;63609;49.992;14.512;2023-06-24T10:29:46;8.02;;;6.45;;
75038;SDS011;63609;49.992;14.512;2023-06-24T10:32:14;7.63;;;6.40;;
75038;SDS011;63609;49.992;14.512;2023-06-24T10:34:41;9.77;;;7.30;;
75038;SDS011;63609;49.992;14.512;2023-06-24T10:37:10;8.20;;;5.22;;
75038;SDS011;63609;49.992;14.512;2023-06-24T10:42:29;8.18;;;6.70;;
75038;SDS011;63609;49.992;14.512;2023-06-24T10:50:10;11.50;;;8.57;;
75038;SDS011;63609;49.992;14.512;2023-06-24T10:52:47;13.98;;;7.95;;
75038;SDS011;63609;49.992;14.512;2023-06-24T10:55:20;9.52;;;7.65;;
75038;SDS011;63609;49.992;14.512;2023-06-24T10:57:49;10.90;;;7.47;;
75038;SDS011;63609;49.992;14.512;2023-06-24T11:00:16;9.27;;;7.28;;
75038;SDS011;63609;49.992;14.512;2023-06-24T11:02:43;11.30;;;7.68;;
75038;SDS011;63609;49.992;14.512;2023-06-24T11:05:11;11.32;;;7.10;;
75038;SDS011;63609;49.992;14.512;2023-06-24T11:07:38;7.40;;;6.65;;
75038;SDS011;63609;49.992;14.512;2023-06-24T11:10:13;9.38;;;6.35;;
75038;SDS011;63609;49.992;14.512;2023-06-24T11:12:42;10.77;;;7.10;;
75038;SDS011;63609;49.992;14.512;2023-06-24T11:15:11;7.53;;;6.20;;
75038;SDS011;63609;49.992;14.512;2023-06-24T11:17:40;7.57;;;6.40;;
75038;SDS011;63609;49.992;14.512;2023-06-24T11:20:12;8.40;;;5.95;;
75038;SDS011;63609;49.992;14.512;2023-06-24T11:22:41;7.32;;;6.15;;
75038;SDS011;63609;49.992;14.512;2023-06-24T11:25:19;9.38;;;6.20;;
75038;SDS011;63609;49.992;14.512;2023-06-24T11:27:50;9.25;;;7.35;;
75038;SDS011;63609;49.992;14.512;2023-06-24T11:30:21;9.98;;;6.47;;
75038;SDS011;63609;49.992;14.512;2023-06-24T11:32:48;9.75;;;7.30;;
75038;SDS011;63609;49.992;14.512;2023-06-24T11:35:16;8.32;;;6.05;;
75038;SDS011;63609;49.992;14.512;2023-06-24T11:37:46;7.55;;;6.38;;
75038;SDS011;63609;49.992;14.512;2023-06-24T11:40:15;8.32;;;5.60;;
75038;SDS011;63609;49.992;14.512;2023-06-24T11:42:45;10.30;;;6.55;;
75038;SDS011;63609;49.992;14.512;2023-06-24T11:45:18;8.10;;;6.18;;
75038;SDS011;63609;49.992;14.512;2023-06-24T11:47:47;7.35;;;5.35;;
75038;SDS011;63609;49.992;14.512;2023-06-24T11:50:15;7.43;;;5.72;;
75038;SDS011;63609;49.992;14.512;2023-06-24T11:52:42;7.57;;;5.30;;
75038;SDS011;63609;49.992;14.512;2023-06-24T11:55:17;8.65;;;5.72;;
75038;SDS011;63609;49.992;14.512;2023-06-24T12:00:24;6.22;;;5.20;;
75038;SDS011;63609;49.992;14.512;2023-06-24T12:02:57;6.63;;;4.95;;
75038;SDS011;63609;49.992;14.512;2023-06-24T12:05:29;8.02;;;5.95;;
75038;SDS011;63609;49.992;14.512;2023-06-24T12:07:59;7.95;;;5.15;;
75038;SDS011;63609;49.992;14.512;2023-06-24T12:10:33;7.82;;;5.13;;
75038;SDS011;63609;49.992;14.512;2023-06-24T12:13:01;7.63;;;5.60;;
75038;SDS011;63609;49.992;14.512;2023-06-24T12:15:30;7.28;;;5.20;;
75038;SDS011;63609;49.992;14.512;2023-06-24T12:17:57;5.63;;;4.78;;
75038;SDS011;63609;49.992;14.512;2023-06-24T12:20:24;6.88;;;5.03;;
75038;SDS011;63609;49.992;14.512;2023-06-24T12:22:56;6.15;;;5.15;;
75038;SDS011;63609;49.992;14.512;2023-06-24T12:25:23;6.68;;;4.60;;
75038;SDS011;63609;49.992;14.512;2023-06-24T12:27:50;6.57;;;4.85;;
75038;SDS011;63609;49.992;14.512;2023-06-24T12:30:17;6.55;;;4.53;;
75038;SDS011;63609;49.992;14.512;2023-06-24T12:32:44;6.90;;;4.75;;
75038;SDS011;63609;49.992;14.512;2023-06-24T12:35:11;6.95;;;4.25;;
75038;SDS011;63609;49.992;14.512;2023-06-24T12:37:39;7.75;;;4.55;;
75038;SDS011;63609;49.992;14.512;2023-06-24T12:40:06;6.00;;;4.38;;
75038;SDS011;63609;49.992;14.512;2023-06-24T12:42:33;5.88;;;4.28;;
75038;SDS011;63609;49.992;14.512;2023-06-24T12:45:00;6.93;;;4.47;;
75038;SDS011;63609;49.992;14.512;2023-06-24T12:47:27;6.13;;;4.20;;
75038;SDS011;63609;49.992;14.512;2023-06-24T12:49:54;6.53;;;4.32;;
75038;SDS011;63609;49.992;14.512;2023-06-24T12:52:21;7.15;;;4.60;;
75038;SDS011;63609;49.992;14.512;2023-06-24T12:54:48;6.07;;;4.20;;
75038;SDS011;63609;49.992;14.512;2023-06-24T12:57:15;5.45;;;4.50;;
75038;SDS011;63609;49.992;14.512;2023-06-24T12:59:42;5.63;;;4.10;;
75038;SDS011;63609;49.992;14.512;2023-06-24T13:02:09;5.57;;;3.97;;
75038;SDS011;63609;49.992;14.512;2023-06-24T13:04:37;6.10;;;3.63;;
75038;SDS011;63609;49.992;14.512;2023-06-24T13:07:04;6.68;;;4.25;;
75038;SDS011;63609;49.992;14.512;2023-06-24T13:09:31;6.65;;;4.53;;
75038;SDS011;63609;49.992;14.512;2023-06-24T13:11:58;5.07;;;4.05;;
75038;SDS011;63609;49.992;14.512;2023-06-24T13:14:26;7.28;;;4.00;;
75038;SDS011;63609;49.992;14.512;2023-06-24T13:16:55;5.00;;;4.00;;
75038;SDS011;63609;49.992;14.512;2023-06-24T13:19:22;6.03;;;3.92;;
75038;SDS011;63609;49.992;14.512;2023-06-24T13:21:49;6.28;;;3.70;;
75038;SDS011;63609;49.992;14.512;2023-06-24T13:24:16;4.47;;;3.53;;
75038;SDS011;63609;49.992;14.512;2023-06-24T13:26:44;7.55;;;3.90;;
75038;SDS011;63609;49.992;14.512;2023-06-24T13:29:11;5.45;;;4.05;;
75038;SDS011;63609;49.992;14.512;2023-06-24T13:31:38;6.78;;;4.10;;
75038;SDS011;63609;49.992;14.512;2023-06-24T13:34:09;6.25;;;3.78;;
75038;SDS011;63609;49.992;14.512;2023-06-24T13:36:37;6.93;;;4.20;;
75038;SDS011;63609;49.992;14.512;2023-06-24T13:39:06;5.00;;;3.70;;
75038;SDS011;63609;49.992;14.512;2023-06-24T13:41:35;6.03;;;3.60;;
75038;SDS011;63609;49.992;14.512;2023-06-24T13:44:02;6.95;;;4.18;;
75038;SDS011;63609;49.992;14.512;2023-06-24T13:46:30;6.13;;;4.13;;
75038;SDS011;63609;49.992;14.512;2023-06-24T13:48:58;4.93;;;3.55;;
75038;SDS011;63609;49.992;14.512;2023-06-24T13:51:30;5.15;;;3.17;;
75038;SDS011;63609;49.992;14.512;2023-06-24T13:53:57;4.85;;;3.60;;
75038;SDS011;63609;49.992;14.512;2023-06-24T13:56:26;5.38;;;3.55;;
75038;SDS011;63609;49.992;14.512;2023-06-24T13:58:53;6.43;;;3.65;;
75038;SDS011;63609;49.992;14.512;2023-06-24T14:01:21;6.03;;;4.22;;
75038;SDS011;63609;49.992;14.512;2023-06-24T14:03:49;7.13;;;3.78;;
75038;SDS011;63609;49.992;14.512;2023-06-24T14:06:20;6.00;;;3.97;;
75038;SDS011;63609;49.992;14.512;2023-06-24T14:08:48;4.95;;;3.50;;
75038;SDS011;63609;49.992;14.512;2023-06-24T14:11:17;5.60;;;3.88;;
75038;SDS011;63609;49.992;14.512;2023-06-24T14:13:44;6.60;;;3.95;;
75038;SDS011;63609;49.992;14.512;2023-06-24T14:16:13;5.80;;;3.80;;
75038;SDS011;63609;49.992;14.512;2023-06-24T14:18:40;7.88;;;3.90;;
75038;SDS011;63609;49.992;14.512;2023-06-24T14:21:08;7.57;;;4.10;;
75038;SDS011;63609;49.992;14.512;2023-06-24T14:23:36;4.88;;;3.47;;
75038;SDS011;63609;49.992;14.512;2023-06-24T14:26:03;8.65;;;3.83;;
75038;SDS011;63609;49.992;14.512;2023-06-24T14:28:31;9.05;;;3.92;;
75038;SDS011;63609;49.992;14.512;2023-06-24T14:30:58;7.78;;;4.38;;
75038;SDS011;63609;49.992;14.512;2023-06-24T14:33:24;7.60;;;4.07;;
75038;SDS011;63609;49.992;14.512;2023-06-24T14:35:51;8.75;;;4.25;;
75038;SDS011;63609;49.992;14.512;2023-06-24T14:38:18;5.03;;;3.75;;
75038;SDS011;63609;49.992;14.512;2023-06-24T14:40:45;5.90;;;3.92;;
75038;SDS011;63609;49.992;14.512;2023-06-24T14:43:13;6.07;;;3.97;;
75038;SDS011;63609;49.992;14.512;2023-06-24T14:45:40;6.40;;;4.10;;
75038;SDS011;63609;49.992;14.512;2023-06-24T14:48:07;5.68;;;4.10;;
75038;SDS011;63609;49.992;14.512;2023-06-24T14:50:34;7.22;;;4.63;;
75038;SDS011;63609;49.992;14.512;2023-06-24T14:53:02;7.35;;;4.57;;
75038;SDS011;63609;49.992;14.512;2023-06-24T14:55:30;8.20;;;5.00;;
75038;SDS011;63609;49.992;14.512;2023-06-24T14:57:57;7.25;;;4.60;;
75038;SDS011;63609;49.992;14.512;2023-06-24T15:00:25;6.22;;;4.03;;
75038;SDS011;63609;49.992;14.512;2023-06-24T15:02:55;7.50;;;4.63;;
75038;SDS011;63609;49.992;14.512;2023-06-24T15:05:22;6.72;;;4.78;;